createdAt,value
2019-04-28T00:01:28.917Z,2.03
2019-04-28T00:03:58.149Z,2.27
2019-04-28T00:06:27.496Z,2.57
2019-04-28T00:08:56.731Z,2.30
2019-04-28T00:11:26.400Z,2.03
2019-04-28T00:13:55.557Z,2.43
2019-04-28T00:16:25.085Z,3.03
2019-04-28T00:18:54.716Z,2.27
2019-04-28T00:21:33.825Z,2.40
2019-04-28T00:24:11.871Z,2.83
2019-04-28T00:26:45.885Z,2.40
2019-04-28T00:29:15.045Z,2.00
2019-04-28T00:31:44.633Z,2.23
2019-04-28T00:34:13.883Z,1.90
2019-04-28T00:36:45.224Z,2.57
2019-04-28T00:39:14.409Z,2.17
2019-04-28T00:41:43.698Z,2.07
2019-04-28T00:44:12.875Z,2.00
2019-04-28T00:46:43.347Z,2.10
2019-04-28T00:49:12.517Z,1.53
2019-04-28T00:51:41.739Z,2.30
2019-04-28T00:54:12.055Z,1.77
2019-04-28T00:56:42.036Z,2.33
2019-04-28T00:59:12.004Z,1.90
2019-04-28T01:01:51.280Z,1.40
2019-04-28T01:04:21.925Z,2.00
2019-04-28T01:06:51.957Z,2.33
2019-04-28T01:09:22.191Z,2.40
2019-04-28T01:11:53.394Z,2.10
2019-04-28T01:14:22.537Z,1.53
2019-04-28T01:16:59.852Z,2.57
2019-04-28T01:19:32.362Z,2.10
2019-04-28T01:22:17.353Z,2.40
2019-04-28T01:24:47.228Z,2.30
2019-04-28T01:27:50.299Z,2.47
2019-04-28T01:30:41.355Z,2.20
2019-04-28T01:33:17.169Z,2.17
2019-04-28T01:35:46.999Z,2.00
2019-04-28T01:38:16.262Z,2.20
2019-04-28T01:40:45.554Z,2.70
2019-04-28T01:43:15.142Z,2.27
2019-04-28T01:45:44.802Z,3.10
2019-04-28T01:48:14.261Z,2.40
2019-04-28T01:50:43.559Z,2.63
2019-04-28T01:53:13.171Z,3.13
2019-04-28T01:55:42.381Z,3.17
2019-04-28T01:58:11.577Z,3.67
2019-04-28T02:00:41.108Z,2.90
2019-04-28T02:03:10.430Z,3.00
2019-04-28T02:05:40.526Z,2.50
2019-04-28T02:08:10.474Z,2.97
2019-04-28T02:10:40.224Z,3.20
2019-04-28T02:13:11.297Z,2.63
2019-04-28T02:15:40.639Z,2.50
2019-04-28T02:18:10.438Z,2.57
2019-04-28T02:20:41.587Z,3.40
2019-04-28T02:23:17.139Z,4.27
2019-04-28T02:25:46.644Z,2.80
2019-04-28T02:28:16.220Z,3.10
2019-04-28T02:30:50.332Z,3.10
2019-04-28T02:33:16.783Z,2.80
2019-04-28T02:35:46.158Z,3.63
2019-04-28T02:38:15.751Z,3.80
2019-04-28T02:40:45.819Z,3.03
2019-04-28T02:43:15.042Z,2.80
2019-04-28T02:45:44.504Z,2.47
2019-04-28T02:48:21.107Z,3.23
2019-04-28T02:51:02.821Z,2.97
2019-04-28T02:53:35.233Z,3.40
2019-04-28T02:56:04.757Z,2.47
2019-04-28T02:58:33.923Z,2.60
2019-04-28T03:01:12.932Z,2.90
2019-04-28T03:03:34.381Z,2.70
2019-04-28T03:06:03.725Z,2.40
2019-04-28T03:08:32.956Z,1.73
2019-04-28T03:11:02.139Z,2.47
2019-04-28T03:13:31.466Z,2.13
2019-04-28T03:16:01.779Z,2.17
2019-04-28T03:18:31.832Z,2.53
2019-04-28T03:21:04.205Z,2.40
2019-04-28T03:23:32.822Z,2.50
2019-04-28T03:26:36.083Z,2.40
2019-04-28T03:29:20.510Z,2.20
2019-04-28T03:32:23.127Z,2.90
2019-04-28T03:34:43.961Z,2.00
2019-04-28T03:37:13.525Z,2.30
2019-04-28T03:39:42.747Z,2.20
2019-04-28T03:42:11.912Z,2.43
2019-04-28T03:44:41.648Z,2.27
2019-04-28T03:47:11.412Z,2.63
2019-04-28T03:49:43.234Z,2.53
2019-04-28T03:52:11.487Z,2.20
2019-04-28T03:54:41.205Z,2.63
2019-04-28T03:57:11.517Z,2.00
2019-04-28T03:59:43.496Z,2.20
2019-04-28T04:02:12.331Z,2.43
2019-04-28T04:04:41.664Z,1.83
2019-04-28T04:07:11.399Z,2.50
2019-04-28T04:10:00.904Z,2.23
2019-04-28T04:12:55.631Z,2.07
2019-04-28T04:15:54.583Z,2.00
2019-04-28T04:18:43.652Z,2.10
2019-04-28T04:21:13.358Z,2.20
2019-04-28T04:23:42.965Z,2.27
2019-04-28T04:26:12.461Z,2.30
2019-04-28T04:28:42.027Z,2.73
2019-04-28T04:31:11.393Z,2.30
2019-04-28T04:33:41.202Z,2.53
2019-04-28T04:36:11.931Z,2.83
2019-04-28T04:38:45.980Z,3.20
2019-04-28T04:41:12.417Z,2.77
2019-04-28T04:43:42.005Z,2.93
2019-04-28T04:46:36.591Z,3.10
2019-04-28T04:49:06.355Z,2.53
2019-04-28T04:51:35.536Z,3.03
2019-04-28T04:54:05.067Z,2.20
2019-04-28T04:56:34.307Z,2.57
2019-04-28T04:59:03.828Z,2.23
2019-04-28T05:02:02.404Z,2.27
2019-04-28T05:05:06.207Z,2.17
2019-04-28T05:07:35.445Z,2.40
2019-04-28T05:10:05.537Z,2.33
2019-04-28T05:12:34.683Z,2.57
2019-04-28T05:15:04.255Z,2.50
2019-04-28T05:17:33.504Z,2.93
2019-04-28T05:20:02.754Z,2.77
2019-04-28T05:22:34.888Z,2.83
2019-04-28T05:25:12.120Z,2.40
2019-04-28T05:27:41.343Z,2.73
2019-04-28T05:30:13.868Z,2.17
2019-04-28T05:32:45.369Z,2.70
2019-04-28T05:35:13.006Z,2.50
2019-04-28T05:37:42.623Z,2.63
2019-04-28T05:40:12.231Z,2.93
2019-04-28T05:43:00.496Z,3.17
2019-04-28T05:45:32.212Z,2.20
2019-04-28T05:48:02.141Z,2.47
2019-04-28T05:50:40.075Z,2.87
2019-04-28T05:53:15.242Z,2.60
2019-04-28T05:55:52.569Z,3.00
2019-04-28T05:58:40.285Z,3.40
2019-04-28T06:01:17.693Z,3.23
2019-04-28T06:03:47.505Z,2.90
2019-04-28T06:06:16.866Z,2.70
2019-04-28T06:08:59.817Z,4.03
2019-04-28T06:11:34.037Z,5.63
2019-04-28T06:14:03.705Z,3.97
2019-04-28T06:16:33.025Z,3.07
2019-04-28T06:19:02.472Z,3.17
2019-04-28T06:21:32.017Z,3.70
2019-04-28T06:24:01.210Z,5.00
2019-04-28T06:26:30.363Z,4.20
2019-04-28T06:29:00.336Z,4.00
2019-04-28T06:31:29.583Z,4.57
2019-04-28T06:33:58.826Z,6.17
2019-04-28T06:36:28.434Z,5.10
2019-04-28T06:38:57.676Z,3.20
2019-04-28T06:41:27.032Z,3.00
2019-04-28T06:43:56.321Z,3.10
2019-04-28T06:46:25.559Z,3.83
2019-04-28T06:48:55.055Z,3.63
2019-04-28T06:51:24.861Z,3.80
2019-04-28T06:53:54.043Z,3.07
2019-04-28T06:56:23.597Z,3.53
2019-04-28T06:58:59.277Z,3.53
2019-04-28T07:01:24.218Z,3.67
2019-04-28T07:03:53.721Z,3.90
2019-04-28T07:06:22.891Z,3.60
2019-04-28T07:08:52.159Z,6.40
2019-04-28T07:11:21.336Z,3.60
2019-04-28T07:13:50.594Z,4.07
2019-04-28T07:16:19.774Z,4.60
2019-04-28T07:18:49.494Z,5.13
2019-04-28T07:21:33.005Z,5.10
2019-04-28T07:24:02.965Z,5.90
2019-04-28T07:26:32.207Z,5.30
2019-04-28T07:29:01.445Z,5.27
2019-04-28T07:31:30.816Z,5.90
2019-04-28T07:34:02.813Z,6.80
2019-04-28T07:36:31.065Z,7.00
2019-04-28T07:39:00.391Z,6.17
2019-04-28T07:41:29.598Z,5.47
2019-04-28T07:43:59.547Z,6.33
2019-04-28T07:46:29.042Z,6.50
2019-04-28T07:48:58.293Z,7.57
2019-04-28T07:51:31.868Z,5.90
2019-04-28T07:54:07.020Z,4.90
2019-04-28T07:56:36.216Z,5.13
2019-04-28T07:59:05.377Z,4.37
2019-04-28T08:01:34.698Z,4.10
2019-04-28T08:04:04.235Z,4.63
2019-04-28T08:06:33.503Z,4.70
2019-04-28T08:09:02.658Z,4.53
2019-04-28T08:11:31.836Z,4.70
2019-04-28T08:14:01.320Z,3.80
2019-04-28T08:16:30.490Z,4.67
2019-04-28T08:18:59.725Z,4.27
2019-04-28T08:21:29.526Z,5.63
2019-04-28T08:23:58.764Z,4.87
2019-04-28T08:26:28.356Z,3.90
2019-04-28T08:28:57.546Z,3.70
2019-04-28T08:31:31.870Z,3.50
2019-04-28T08:34:03.748Z,5.50
2019-04-28T08:36:33.387Z,4.33
2019-04-28T08:39:04.176Z,3.37
2019-04-28T08:41:33.352Z,3.57
2019-04-28T08:44:02.934Z,3.40
2019-04-28T08:46:32.169Z,4.40
2019-04-28T08:49:01.380Z,2.90
2019-04-28T08:51:30.630Z,3.47
2019-04-28T08:53:59.820Z,3.00
2019-04-28T08:56:28.992Z,3.20
2019-04-28T08:58:58.432Z,3.50
2019-04-28T09:01:27.699Z,4.00
2019-04-28T09:03:56.969Z,4.00
2019-04-28T09:06:26.256Z,3.47
2019-04-28T09:08:55.480Z,4.47
2019-04-28T09:11:25.044Z,4.30
2019-04-28T09:13:54.374Z,4.20
2019-04-28T09:16:23.659Z,5.50
2019-04-28T09:18:52.954Z,4.63
2019-04-28T09:21:22.337Z,4.93
2019-04-28T09:23:51.696Z,5.10
2019-04-28T09:26:21.062Z,4.23
2019-04-28T09:28:50.593Z,3.40
2019-04-28T09:31:19.857Z,4.13
2019-04-28T09:33:49.813Z,8.13
2019-04-28T09:36:19.010Z,5.00
2019-04-28T09:38:48.627Z,4.47
2019-04-28T09:41:18.246Z,4.23
2019-04-28T09:44:02.037Z,4.60
2019-04-28T09:46:34.100Z,4.40
2019-04-28T09:49:03.662Z,4.77
2019-04-28T09:51:36.894Z,4.63
2019-04-28T09:54:06.931Z,4.27
2019-04-28T09:56:37.820Z,5.40
2019-04-28T09:59:07.798Z,4.90
2019-04-28T10:01:38.603Z,4.80
2019-04-28T10:04:08.235Z,5.20
2019-04-28T10:06:37.554Z,5.00
2019-04-28T10:09:08.431Z,5.47
2019-04-28T10:11:38.152Z,5.67
2019-04-28T10:14:07.508Z,5.10
2019-04-28T10:16:37.603Z,5.87
2019-04-28T10:19:06.967Z,6.03
2019-04-28T10:21:36.428Z,6.53
2019-04-28T10:24:05.867Z,5.13
2019-04-28T10:26:35.441Z,4.80
2019-04-28T10:29:04.913Z,5.67
2019-04-28T10:31:34.998Z,5.40
2019-04-28T10:34:05.545Z,4.60
2019-04-28T10:36:53.870Z,4.90
2019-04-28T10:39:45.290Z,4.97
2019-04-28T10:42:14.479Z,6.07
2019-04-28T10:44:45.653Z,5.00
2019-04-28T10:47:15.715Z,5.20
2019-04-28T10:49:45.017Z,5.40
2019-04-28T10:52:14.210Z,5.83
2019-04-28T10:54:43.429Z,6.37
2019-04-28T10:57:12.696Z,5.43
2019-04-28T10:59:41.994Z,5.70
2019-04-28T11:02:11.301Z,5.37
2019-04-28T11:05:08.546Z,5.87
2019-04-28T11:07:33.563Z,5.40
2019-04-28T11:10:11.249Z,6.47
2019-04-28T11:12:40.435Z,5.00
2019-04-28T11:15:15.319Z,5.47
2019-04-28T11:17:44.555Z,5.30
2019-04-28T11:20:13.824Z,4.97
2019-04-28T11:22:43.144Z,5.47
2019-04-28T11:25:12.667Z,4.97
2019-04-28T11:27:41.863Z,5.27
2019-04-28T11:30:11.301Z,5.63
2019-04-28T11:32:43.496Z,4.43
2019-04-28T11:35:22.238Z,5.47
2019-04-28T11:37:51.862Z,5.07
2019-04-28T11:40:21.319Z,5.60
2019-04-28T11:42:50.578Z,5.77
2019-04-28T11:45:19.816Z,5.27
2019-04-28T11:47:48.979Z,4.97
2019-04-28T11:50:18.145Z,5.30
2019-04-28T11:52:47.691Z,5.13
2019-04-28T11:55:17.142Z,4.93
2019-04-28T11:57:46.718Z,5.17
2019-04-28T12:00:29.640Z,5.40
2019-04-28T12:02:58.853Z,6.10
2019-04-28T12:05:34.889Z,6.10
2019-04-28T12:08:04.230Z,5.60
2019-04-28T12:10:37.775Z,5.40
2019-04-28T12:13:28.598Z,5.43
2019-04-28T12:16:09.754Z,6.07
2019-04-28T12:18:47.896Z,6.20
2019-04-28T12:21:25.807Z,5.53
2019-04-28T12:23:55.008Z,6.10
2019-04-28T12:26:24.183Z,5.90
2019-04-28T12:28:53.354Z,5.10
2019-04-28T12:31:22.999Z,5.13
2019-04-28T12:33:52.691Z,4.40
2019-04-28T12:36:22.226Z,3.67
2019-04-28T12:38:51.432Z,3.37
2019-04-28T12:41:20.672Z,3.50
2019-04-28T12:43:50.219Z,3.83
2019-04-28T12:46:19.562Z,3.40
2019-04-28T12:48:51.830Z,3.80
2019-04-28T12:51:21.298Z,4.47
2019-04-28T12:53:53.138Z,5.23
2019-04-28T12:56:22.376Z,4.80
2019-04-28T12:58:53.454Z,4.77
2019-04-28T13:01:30.212Z,4.73
2019-04-28T13:04:11.736Z,5.10
2019-04-28T13:06:40.964Z,4.57
2019-04-28T13:09:10.229Z,4.90
2019-04-28T13:11:39.805Z,5.63
2019-04-28T13:14:09.036Z,6.43
2019-04-28T13:16:38.406Z,7.13
2019-04-28T13:19:07.550Z,7.00
2019-04-28T13:21:36.822Z,6.17
2019-04-28T13:24:06.043Z,6.20
2019-04-28T13:26:35.614Z,6.90
2019-04-28T13:29:04.912Z,7.10
2019-04-28T13:31:34.235Z,6.97
2019-04-28T13:34:05.353Z,6.40
2019-04-28T13:36:34.732Z,5.60
2019-04-28T13:39:07.567Z,6.07
2019-04-28T13:41:37.513Z,6.10
2019-04-28T13:44:08.743Z,6.90
2019-04-28T13:46:38.062Z,6.03
2019-04-28T13:49:09.125Z,6.20
2019-04-28T13:51:38.421Z,6.80
2019-04-28T13:54:09.559Z,6.50
2019-04-28T13:56:38.868Z,6.13
2019-04-28T13:59:13.848Z,6.63
2019-04-28T14:01:52.522Z,6.63
2019-04-28T14:04:34.368Z,7.30
2019-04-28T14:07:05.506Z,7.20
2019-04-28T14:09:35.018Z,6.70
2019-04-28T14:12:04.310Z,6.47
2019-04-28T14:14:33.899Z,6.43
2019-04-28T14:17:03.177Z,6.33
2019-04-28T14:19:32.685Z,7.23
2019-04-28T14:22:01.859Z,6.80
2019-04-28T14:24:31.453Z,6.93
2019-04-28T14:27:00.831Z,7.43
2019-04-28T14:29:30.738Z,6.50
2019-04-28T14:32:00.081Z,7.50
2019-04-28T14:34:29.669Z,7.30
2019-04-28T14:36:59.169Z,6.40
2019-04-28T14:39:28.716Z,7.20
2019-04-28T14:41:58.360Z,7.80
2019-04-28T14:44:27.568Z,7.20
2019-04-28T14:46:57.123Z,6.30
2019-04-28T14:49:26.659Z,5.30
2019-04-28T14:51:55.919Z,4.80
2019-04-28T14:54:25.233Z,4.30
2019-04-28T14:56:54.527Z,3.40
2019-04-28T14:59:24.200Z,4.77
2019-04-28T15:02:12.517Z,5.93
2019-04-28T15:04:59.454Z,6.30
2019-04-28T15:07:46.624Z,5.30
2019-04-28T15:10:26.027Z,5.90
2019-04-28T15:12:55.388Z,5.70
2019-04-28T15:15:25.557Z,6.40
2019-04-28T15:17:54.811Z,6.77
2019-04-28T15:20:24.057Z,7.07
2019-04-28T15:22:55.785Z,7.13
2019-04-28T15:25:25.571Z,7.30
2019-04-28T15:27:54.823Z,7.50
2019-04-28T15:30:24.074Z,4.83
2019-04-28T15:32:53.815Z,5.10
2019-04-28T15:35:23.062Z,5.67
2019-04-28T15:37:52.659Z,6.67
2019-04-28T15:40:21.917Z,6.10
2019-04-28T15:42:51.118Z,5.70
2019-04-28T15:45:20.641Z,6.13
2019-04-28T15:47:50.181Z,6.40
2019-04-28T15:50:19.409Z,6.63
2019-04-28T15:52:48.638Z,7.07
2019-04-28T15:55:22.385Z,7.63
2019-04-28T15:57:51.720Z,7.80
2019-04-28T16:00:21.322Z,7.30
2019-04-28T16:02:50.556Z,7.00
2019-04-28T16:05:19.798Z,6.30
2019-04-28T16:07:49.237Z,5.57
2019-04-28T16:10:19.330Z,5.30
2019-04-28T16:12:48.622Z,5.47
2019-04-28T16:15:18.192Z,5.00
2019-04-28T16:17:48.118Z,5.80
2019-04-28T16:20:17.352Z,5.67
2019-04-28T16:22:46.615Z,5.23
2019-04-28T16:25:15.786Z,4.73
2019-04-28T16:27:45.472Z,4.20
2019-04-28T16:30:15.333Z,4.23
2019-04-28T16:32:45.137Z,5.20
2019-04-28T16:35:14.425Z,5.90
2019-04-28T16:37:43.621Z,7.10
2019-04-28T16:40:12.849Z,7.43
2019-04-28T16:42:47.927Z,7.37
2019-04-28T16:45:22.582Z,6.80
2019-04-28T16:47:52.128Z,7.37
2019-04-28T16:50:21.451Z,6.80
2019-04-28T16:52:50.833Z,6.20
2019-04-28T16:55:24.216Z,6.77
2019-04-28T16:58:11.243Z,6.50
2019-04-28T17:01:17.786Z,6.03
2019-04-28T17:03:47.672Z,4.67
2019-04-28T17:06:16.823Z,4.30
2019-04-28T17:08:46.187Z,4.30
2019-04-28T17:11:15.492Z,4.20
2019-04-28T17:13:45.150Z,4.13
2019-04-28T17:16:15.016Z,4.53
2019-04-28T17:18:48.200Z,5.80
2019-04-28T17:21:17.777Z,5.93
2019-04-28T17:23:47.488Z,5.97
2019-04-28T17:26:16.648Z,5.97
2019-04-28T17:28:45.935Z,6.13
2019-04-28T17:31:15.196Z,6.67
2019-04-28T17:33:44.416Z,5.87
2019-04-28T17:36:13.668Z,5.90
2019-04-28T17:38:42.864Z,6.30
2019-04-28T17:41:12.538Z,5.87
2019-04-28T17:43:42.206Z,5.37
2019-04-28T17:46:11.962Z,6.00
2019-04-28T17:48:45.539Z,5.40
2019-04-28T17:51:14.830Z,5.00
2019-04-28T17:53:44.094Z,5.13
2019-04-28T17:56:13.302Z,6.17
2019-04-28T17:58:42.458Z,6.13
2019-04-28T18:01:29.720Z,7.70
2019-04-28T18:04:17.127Z,7.10
2019-04-28T18:06:50.938Z,7.63
2019-04-28T18:09:20.522Z,7.23
2019-04-28T18:11:50.203Z,7.60
2019-04-28T18:14:19.814Z,7.67
2019-04-28T18:17:01.916Z,7.60
2019-04-28T18:19:31.723Z,7.80
2019-04-28T18:22:01.050Z,8.67
2019-04-28T18:24:30.298Z,9.23
2019-04-28T18:26:59.642Z,7.83
2019-04-28T18:29:28.968Z,7.67
2019-04-28T18:32:26.216Z,8.20
2019-04-28T18:35:10.370Z,9.13
2019-04-28T18:38:07.898Z,8.53
2019-04-28T18:41:05.338Z,9.33
2019-04-28T18:43:53.586Z,9.83
2019-04-28T18:46:26.872Z,9.73
2019-04-28T18:48:56.046Z,9.30
2019-04-28T18:51:25.302Z,9.60
2019-04-28T18:53:54.530Z,10.30
2019-04-28T18:56:24.112Z,11.00
2019-04-28T18:58:53.308Z,10.83
2019-04-28T19:01:39.030Z,10.50
2019-04-28T19:04:09.082Z,10.67
2019-04-28T19:06:38.406Z,10.80
2019-04-28T19:09:25.707Z,9.97
2019-04-28T19:12:00.061Z,9.47
2019-04-28T19:14:34.067Z,9.87
2019-04-28T19:17:27.382Z,10.13
2019-04-28T19:19:56.705Z,10.10
2019-04-28T19:22:25.933Z,10.17
2019-04-28T19:24:55.153Z,10.87
2019-04-28T19:27:24.380Z,10.83
2019-04-28T19:29:53.544Z,10.97
2019-04-28T19:32:22.787Z,10.90
2019-04-28T19:34:52.394Z,11.27
2019-04-28T19:37:21.686Z,11.13
2019-04-28T19:39:50.847Z,10.20
2019-04-28T19:42:20.107Z,11.10
2019-04-28T19:44:49.439Z,10.30
2019-04-28T19:47:18.758Z,11.47
2019-04-28T19:49:47.922Z,11.57
2019-04-28T19:52:17.102Z,13.73
2019-04-28T19:55:04.308Z,17.60
2019-04-28T19:57:42.932Z,19.37
2019-04-28T20:00:43.770Z,24.10
2019-04-28T20:03:13.327Z,21.33
2019-04-28T20:05:42.574Z,19.77
2019-04-28T20:08:12.154Z,17.93
2019-04-28T20:10:41.851Z,17.83
2019-04-28T20:13:11.172Z,16.60
2019-04-28T20:15:40.370Z,17.33
2019-04-28T20:18:09.529Z,16.93
2019-04-28T20:20:38.685Z,15.50
2019-04-28T20:23:07.893Z,15.47
2019-04-28T20:25:37.360Z,15.77
2019-04-28T20:28:06.888Z,15.43
2019-04-28T20:30:36.126Z,14.13
2019-04-28T20:33:07.353Z,14.80
2019-04-28T20:35:39.413Z,14.63
2019-04-28T20:38:27.658Z,14.37
2019-04-28T20:41:11.301Z,13.47
2019-04-28T20:43:40.585Z,13.57
2019-04-28T20:46:10.146Z,13.83
2019-04-28T20:48:39.387Z,14.33
2019-04-28T20:51:08.540Z,13.97
2019-04-28T20:53:37.703Z,14.37
2019-04-28T20:56:06.871Z,13.30
2019-04-28T20:58:36.902Z,12.97
2019-04-28T21:01:06.088Z,13.07
2019-04-28T21:03:38.386Z,13.50
2019-04-28T21:06:06.721Z,13.27
2019-04-28T21:08:36.055Z,14.03
2019-04-28T21:11:05.434Z,14.10
2019-04-28T21:13:34.713Z,13.47
2019-04-28T21:16:04.463Z,14.40
2019-04-28T21:18:33.811Z,13.77
2019-04-28T21:21:03.195Z,13.60
2019-04-28T21:23:32.547Z,14.07
2019-04-28T21:26:02.361Z,14.40
2019-04-28T21:28:31.682Z,13.40
2019-04-28T21:31:00.941Z,14.50
2019-04-28T21:33:30.831Z,14.43
2019-04-28T21:36:00.007Z,14.40
2019-04-28T21:38:29.196Z,13.87
2019-04-28T21:40:58.840Z,13.73
2019-04-28T21:43:46.824Z,13.30
2019-04-28T21:46:44.264Z,14.63
2019-04-28T21:49:25.453Z,15.73
2019-04-28T21:51:54.642Z,14.00
2019-04-28T21:54:23.791Z,14.03
2019-04-28T21:56:53.789Z,13.87
2019-04-28T21:59:23.011Z,15.00
2019-04-28T22:01:52.591Z,15.43
2019-04-28T22:04:22.210Z,15.17
2019-04-28T22:06:51.392Z,14.30
2019-04-28T22:09:20.557Z,13.90
2019-04-28T22:11:49.761Z,14.93
2019-04-28T22:14:18.925Z,14.93
2019-04-28T22:16:48.090Z,14.47
2019-04-28T22:19:17.596Z,15.17
2019-04-28T22:21:47.121Z,14.57
2019-04-28T22:24:25.587Z,14.90
2019-04-28T22:26:55.431Z,14.90
2019-04-28T22:29:24.985Z,15.50
2019-04-28T22:31:54.309Z,16.13
2019-04-28T22:34:23.872Z,15.73
2019-04-28T22:36:53.111Z,15.13
2019-04-28T22:39:22.660Z,14.50
2019-04-28T22:41:52.142Z,15.80
2019-04-28T22:44:21.656Z,16.83
2019-04-28T22:46:50.805Z,16.53
2019-04-28T22:49:20.140Z,17.27
2019-04-28T22:51:49.302Z,16.47
2019-04-28T22:54:36.468Z,18.13
2019-04-28T22:57:24.202Z,17.03
2019-04-28T22:59:54.521Z,16.90
2019-04-28T23:02:24.556Z,16.47
2019-04-28T23:05:00.289Z,16.53
2019-04-28T23:07:29.769Z,16.80
2019-04-28T23:09:59.222Z,16.03
2019-04-28T23:12:28.462Z,16.70
2019-04-28T23:14:57.826Z,16.50
2019-04-28T23:17:27.039Z,17.80
2019-04-28T23:19:56.215Z,16.87
2019-04-28T23:22:46.757Z,17.33
2019-04-28T23:25:08.394Z,17.57
2019-04-28T23:27:38.049Z,17.33
2019-04-28T23:30:08.894Z,18.33
2019-04-28T23:32:38.142Z,18.50
2019-04-28T23:35:07.755Z,18.57
2019-04-28T23:37:36.994Z,19.23
2019-04-28T23:40:07.406Z,18.87
2019-04-28T23:42:44.934Z,17.60
2019-04-28T23:45:14.212Z,17.70
2019-04-28T23:47:43.770Z,18.20
2019-04-28T23:50:15.122Z,18.33
2019-04-28T23:52:53.882Z,18.60
2019-04-28T23:55:24.970Z,18.87
2019-04-28T23:57:54.150Z,18.10
